sensor_id;sensor_type;location;lat;lon;timestamp;pressure;altitude;pressure_sealevel;temperature;humidity
24788;BME280;12883;52.662;5.196;2024-02-26T00:01:46;100017.53;;;6.94;100.00
24788;BME280;12883;52.662;5.196;2024-02-26T00:04:12;100008.78;;;6.94;100.00
24788;BME280;12883;52.662;5.196;2024-02-26T00:06:38;100020.56;;;6.91;100.00
24788;BME280;12883;52.662;5.196;2024-02-26T00:09:06;100006.06;;;6.81;100.00
24788;BME280;12883;52.662;5.196;2024-02-26T00:11:31;100019.66;;;6.78;100.00
24788;BME280;12883;52.662;5.196;2024-02-26T00:13:57;100016.41;;;6.76;100.00
24788;BME280;12883;52.662;5.196;2024-02-26T00:16:23;100005.03;;;6.75;100.00
24788;BME280;12883;52.662;5.196;2024-02-26T00:18:48;100014.38;;;6.71;100.00
24788;BME280;12883;52.662;5.196;2024-02-26T00:21:13;100000.78;;;6.74;100.00
24788;BME280;12883;52.662;5.196;2024-02-26T00:23:39;100009.47;;;6.68;100.00
24788;BME280;12883;52.662;5.196;2024-02-26T00:26:04;100015.34;;;6.70;100.00
24788;BME280;12883;52.662;5.196;2024-02-26T00:28:29;99994.47;;;6.69;100.00
24788;BME280;12883;52.662;5.196;2024-02-26T00:30:55;100009.28;;;6.70;100.00
24788;BME280;12883;52.662;5.196;2024-02-26T00:33:22;99962.59;;;6.30;100.00
24788;BME280;12883;52.662;5.196;2024-02-26T00:35:48;100002.66;;;6.53;100.00
24788;BME280;12883;52.662;5.196;2024-02-26T00:38:14;99978.84;;;6.33;100.00
24788;BME280;12883;52.662;5.196;2024-02-26T00:40:39;100017.50;;;6.54;100.00
24788;BME280;12883;52.662;5.196;2024-02-26T00:43:06;100015.66;;;6.54;100.00
24788;BME280;12883;52.662;5.196;2024-02-26T00:45:31;100014.66;;;6.55;100.00
24788;BME280;12883;52.662;5.196;2024-02-26T00:47:57;100011.16;;;6.48;100.00
24788;BME280;12883;52.662;5.196;2024-02-26T00:50:23;100016.28;;;6.56;100.00
24788;BME280;12883;52.662;5.196;2024-02-26T00:52:48;100012.16;;;6.47;100.00
24788;BME280;12883;52.662;5.196;2024-02-26T00:55:14;100015.41;;;6.49;100.00
24788;BME280;12883;52.662;5.196;2024-02-26T00:57:39;100012.56;;;6.44;100.00
24788;BME280;12883;52.662;5.196;2024-02-26T01:00:06;100010.53;;;6.46;100.00
24788;BME280;12883;52.662;5.196;2024-02-26T01:02:34;100014.97;;;6.46;100.00
24788;BME280;12883;52.662;5.196;2024-02-26T01:04:59;100007.66;;;6.41;100.00
24788;BME280;12883;52.662;5.196;2024-02-26T01:07:25;100007.28;;;6.44;100.00
24788;BME280;12883;52.662;5.196;2024-02-26T01:09:50;100006.47;;;6.44;100.00
24788;BME280;12883;52.662;5.196;2024-02-26T01:12:15;100003.22;;;6.42;100.00
24788;BME280;12883;52.662;5.196;2024-02-26T01:14:41;100010.09;;;6.36;100.00
24788;BME280;12883;52.662;5.196;2024-02-26T01:17:06;100010.25;;;6.35;100.00
24788;BME280;12883;52.662;5.196;2024-02-26T01:19:31;100012.06;;;6.34;100.00
24788;BME280;12883;52.662;5.196;2024-02-26T01:21:57;100013.47;;;6.30;100.00
24788;BME280;12883;52.662;5.196;2024-02-26T01:24:22;100016.09;;;6.30;100.00
24788;BME280;12883;52.662;5.196;2024-02-26T01:26:47;100010.63;;;6.32;100.00
24788;BME280;12883;52.662;5.196;2024-02-26T01:29:13;100014.84;;;6.26;100.00
24788;BME280;12883;52.662;5.196;2024-02-26T01:31:38;100014.06;;;6.26;100.00
24788;BME280;12883;52.662;5.196;2024-02-26T01:34:03;100021.75;;;6.27;100.00
24788;BME280;12883;52.662;5.196;2024-02-26T01:36:29;100016.88;;;6.24;100.00
24788;BME280;12883;52.662;5.196;2024-02-26T01:38:54;100025.34;;;6.20;100.00
24788;BME280;12883;52.662;5.196;2024-02-26T01:41:19;100019.66;;;6.16;100.00
24788;BME280;12883;52.662;5.196;2024-02-26T01:43:45;100026.53;;;6.17;100.00
24788;BME280;12883;52.662;5.196;2024-02-26T01:46:13;100050.25;;;6.17;100.00
24788;BME280;12883;52.662;5.196;2024-02-26T01:48:43;99980.28;;;5.87;100.00
24788;BME280;12883;52.662;5.196;2024-02-26T01:51:10;100024.53;;;6.19;100.00
24788;BME280;12883;52.662;5.196;2024-02-26T01:53:37;100019.88;;;6.21;100.00
24788;BME280;12883;52.662;5.196;2024-02-26T01:56:03;100031.81;;;6.17;100.00
24788;BME280;12883;52.662;5.196;2024-02-26T01:58:30;100035.06;;;6.19;100.00
24788;BME280;12883;52.662;5.196;2024-02-26T02:00:57;100036.38;;;6.09;100.00
24788;BME280;12883;52.662;5.196;2024-02-26T02:03:23;100034.31;;;6.04;100.00
24788;BME280;12883;52.662;5.196;2024-02-26T02:05:48;100035.38;;;6.10;100.00
24788;BME280;12883;52.662;5.196;2024-02-26T02:08:14;100029.75;;;6.13;100.00
24788;BME280;12883;52.662;5.196;2024-02-26T02:10:41;100050.75;;;6.06;100.00
24788;BME280;12883;52.662;5.196;2024-02-26T02:13:07;100040.22;;;6.06;100.00
24788;BME280;12883;52.662;5.196;2024-02-26T02:15:32;100039.41;;;6.06;100.00
24788;BME280;12883;52.662;5.196;2024-02-26T02:17:58;100039.59;;;6.04;100.00
24788;BME280;12883;52.662;5.196;2024-02-26T02:20:26;100030.44;;;6.00;100.00
24788;BME280;12883;52.662;5.196;2024-02-26T02:22:52;100037.72;;;5.98;100.00
24788;BME280;12883;52.662;5.196;2024-02-26T02:25:17;100033.81;;;5.94;100.00
24788;BME280;12883;52.662;5.196;2024-02-26T02:27:43;100024.06;;;5.88;100.00
24788;BME280;12883;52.662;5.196;2024-02-26T02:30:09;100057.88;;;5.91;100.00
24788;BME280;12883;52.662;5.196;2024-02-26T02:32:37;100034.81;;;5.93;100.00
24788;BME280;12883;52.662;5.196;2024-02-26T02:35:04;100042.34;;;5.96;100.00
24788;BME280;12883;52.662;5.196;2024-02-26T02:37:30;100052.63;;;5.91;100.00
24788;BME280;12883;52.662;5.196;2024-02-26T02:39:55;100063.53;;;5.88;100.00
24788;BME280;12883;52.662;5.196;2024-02-26T02:42:22;100065.78;;;5.91;100.00
24788;BME280;12883;52.662;5.196;2024-02-26T02:44:48;100066.78;;;5.90;100.00
24788;BME280;12883;52.662;5.196;2024-02-26T02:47:13;100040.31;;;5.77;100.00
24788;BME280;12883;52.662;5.196;2024-02-26T02:49:38;100064.72;;;5.86;100.00
24788;BME280;12883;52.662;5.196;2024-02-26T02:52:04;100070.63;;;5.88;100.00
24788;BME280;12883;52.662;5.196;2024-02-26T02:54:29;100073.88;;;5.90;100.00
24788;BME280;12883;52.662;5.196;2024-02-26T02:56:55;100065.16;;;5.89;100.00
24788;BME280;12883;52.662;5.196;2024-02-26T02:59:20;100075.06;;;5.87;100.00
24788;BME280;12883;52.662;5.196;2024-02-26T03:01:45;100070.34;;;5.83;100.00
24788;BME280;12883;52.662;5.196;2024-02-26T03:04:11;100058.47;;;5.87;100.00
24788;BME280;12883;52.662;5.196;2024-02-26T03:06:36;100067.16;;;5.87;100.00
24788;BME280;12883;52.662;5.196;2024-02-26T03:09:02;100074.25;;;5.87;100.00
24788;BME280;12883;52.662;5.196;2024-02-26T03:11:27;100065.97;;;5.90;100.00
24788;BME280;12883;52.662;5.196;2024-02-26T03:13:53;100072.84;;;5.91;100.00
24788;BME280;12883;52.662;5.196;2024-02-26T03:16:18;100065.78;;;5.91;100.00
24788;BME280;12883;52.662;5.196;2024-02-26T03:18:43;100067.06;;;5.95;100.00
24788;BME280;12883;52.662;5.196;2024-02-26T03:21:09;100091.09;;;5.92;100.00
24788;BME280;12883;52.662;5.196;2024-02-26T03:23:34;100080.56;;;5.92;100.00
24788;BME280;12883;52.662;5.196;2024-02-26T03:26:03;100102.66;;;5.91;100.00
24788;BME280;12883;52.662;5.196;2024-02-26T03:28:29;100060.34;;;5.78;100.00
24788;BME280;12883;52.662;5.196;2024-02-26T03:30:55;100081.41;;;5.93;100.00
24788;BME280;12883;52.662;5.196;2024-02-26T03:33:21;100075.31;;;5.92;100.00
24788;BME280;12883;52.662;5.196;2024-02-26T03:35:46;100083.81;;;5.94;100.00
24788;BME280;12883;52.662;5.196;2024-02-26T03:38:12;100082.41;;;5.92;100.00
24788;BME280;12883;52.662;5.196;2024-02-26T03:40:38;100089.31;;;5.93;100.00
24788;BME280;12883;52.662;5.196;2024-02-26T03:43:03;100097.00;;;5.94;100.00
24788;BME280;12883;52.662;5.196;2024-02-26T03:45:30;100053.19;;;5.72;100.00
24788;BME280;12883;52.662;5.196;2024-02-26T03:47:55;100093.44;;;6.02;100.00
24788;BME280;12883;52.662;5.196;2024-02-26T03:50:20;100087.56;;;6.00;100.00
24788;BME280;12883;52.662;5.196;2024-02-26T03:52:46;100101.50;;;6.00;100.00
24788;BME280;12883;52.662;5.196;2024-02-26T03:55:11;100091.09;;;5.92;100.00
24788;BME280;12883;52.662;5.196;2024-02-26T03:57:37;100112.03;;;6.00;100.00
24788;BME280;12883;52.662;5.196;2024-02-26T04:00:02;100118.97;;;6.01;100.00
24788;BME280;12883;52.662;5.196;2024-02-26T04:02:28;100111.44;;;5.98;100.00
24788;BME280;12883;52.662;5.196;2024-02-26T04:04:53;100096.66;;;5.83;100.00
24788;BME280;12883;52.662;5.196;2024-02-26T04:07:19;100109.41;;;6.00;100.00
24788;BME280;12883;52.662;5.196;2024-02-26T04:09:44;100115.94;;;6.04;100.00
24788;BME280;12883;52.662;5.196;2024-02-26T04:12:10;100133.09;;;6.00;100.00
24788;BME280;12883;52.662;5.196;2024-02-26T04:14:35;100124.59;;;5.98;100.00
24788;BME280;12883;52.662;5.196;2024-02-26T04:17:01;100095.56;;;5.77;100.00
24788;BME280;12883;52.662;5.196;2024-02-26T04:19:26;100138.59;;;5.99;100.00
24788;BME280;12883;52.662;5.196;2024-02-26T04:21:52;100145.22;;;5.95;100.00
24788;BME280;12883;52.662;5.196;2024-02-26T04:24:17;100140.13;;;5.93;100.00
24788;BME280;12883;52.662;5.196;2024-02-26T04:26:43;100133.63;;;5.89;100.00
24788;BME280;12883;52.662;5.196;2024-02-26T04:29:08;100136.47;;;5.94;100.00
24788;BME280;12883;52.662;5.196;2024-02-26T04:31:33;100082.13;;;5.51;100.00
24788;BME280;12883;52.662;5.196;2024-02-26T04:33:59;100131.53;;;5.85;100.00
24788;BME280;12883;52.662;5.196;2024-02-26T04:36:24;100130.63;;;5.78;100.00
24788;BME280;12883;52.662;5.196;2024-02-26T04:38:51;100150.75;;;5.85;100.00
24788;BME280;12883;52.662;5.196;2024-02-26T04:41:16;100166.22;;;5.88;100.00
24788;BME280;12883;52.662;5.196;2024-02-26T04:43:42;100177.38;;;5.90;100.00
24788;BME280;12883;52.662;5.196;2024-02-26T04:46:10;100168.84;;;5.88;100.00
24788;BME280;12883;52.662;5.196;2024-02-26T04:48:36;100167.56;;;5.84;100.00
24788;BME280;12883;52.662;5.196;2024-02-26T04:51:02;100163.94;;;5.85;100.00
24788;BME280;12883;52.662;5.196;2024-02-26T04:53:28;100173.66;;;5.85;100.00
24788;BME280;12883;52.662;5.196;2024-02-26T04:55:53;100180.34;;;5.87;100.00
24788;BME280;12883;52.662;5.196;2024-02-26T04:58:19;100186.63;;;5.86;100.00
24788;BME280;12883;52.662;5.196;2024-02-26T05:00:44;100185.38;;;5.82;100.00
24788;BME280;12883;52.662;5.196;2024-02-26T05:03:10;100189.63;;;5.83;100.00
24788;BME280;12883;52.662;5.196;2024-02-26T05:05:40;100201.78;;;5.84;100.00
24788;BME280;12883;52.662;5.196;2024-02-26T05:08:06;100205.59;;;5.82;100.00
24788;BME280;12883;52.662;5.196;2024-02-26T05:10:32;100203.97;;;5.81;100.00
24788;BME280;12883;52.662;5.196;2024-02-26T05:12:58;100194.59;;;5.78;100.00
24788;BME280;12883;52.662;5.196;2024-02-26T05:15:23;100211.69;;;5.82;100.00
24788;BME280;12883;52.662;5.196;2024-02-26T05:17:48;100220.38;;;5.83;100.00
24788;BME280;12883;52.662;5.196;2024-02-26T05:20:14;100209.41;;;5.79;100.00
24788;BME280;12883;52.662;5.196;2024-02-26T05:22:39;100231.91;;;5.82;100.00
24788;BME280;12883;52.662;5.196;2024-02-26T05:25:05;100230.13;;;5.82;100.00
24788;BME280;12883;52.662;5.196;2024-02-26T05:27:30;100232.38;;;5.85;100.00
24788;BME280;12883;52.662;5.196;2024-02-26T05:29:56;100174.75;;;5.47;100.00
24788;BME280;12883;52.662;5.196;2024-02-26T05:32:21;100222.00;;;5.69;100.00
24788;BME280;12883;52.662;5.196;2024-02-26T05:34:47;100241.16;;;5.78;100.00
24788;BME280;12883;52.662;5.196;2024-02-26T05:37:12;100254.16;;;5.79;100.00
24788;BME280;12883;52.662;5.196;2024-02-26T05:39:37;100253.31;;;5.79;100.00
24788;BME280;12883;52.662;5.196;2024-02-26T05:42:04;100271.75;;;5.79;100.00
24788;BME280;12883;52.662;5.196;2024-02-26T05:44:29;100267.31;;;5.79;100.00
24788;BME280;12883;52.662;5.196;2024-02-26T05:46:55;100271.59;;;5.80;100.00
24788;BME280;12883;52.662;5.196;2024-02-26T05:49:20;100268.38;;;5.70;100.00
24788;BME280;12883;52.662;5.196;2024-02-26T05:51:46;100291.34;;;5.76;100.00
24788;BME280;12883;52.662;5.196;2024-02-26T05:54:12;100286.88;;;5.77;100.00
24788;BME280;12883;52.662;5.196;2024-02-26T05:56:37;100297.91;;;5.80;100.00
24788;BME280;12883;52.662;5.196;2024-02-26T05:59:02;100276.66;;;5.67;100.00
24788;BME280;12883;52.662;5.196;2024-02-26T06:01:28;100307.47;;;5.81;100.00
24788;BME280;12883;52.662;5.196;2024-02-26T06:03:53;100308.09;;;5.83;100.00
24788;BME280;12883;52.662;5.196;2024-02-26T06:06:18;100323.88;;;5.83;100.00
24788;BME280;12883;52.662;5.196;2024-02-26T06:08:44;100319.63;;;5.82;100.00
24788;BME280;12883;52.662;5.196;2024-02-26T06:11:09;100331.59;;;5.85;100.00
24788;BME280;12883;52.662;5.196;2024-02-26T06:13:35;100330.78;;;5.84;100.00
24788;BME280;12883;52.662;5.196;2024-02-26T06:16:01;100303.41;;;5.56;100.00
24788;BME280;12883;52.662;5.196;2024-02-26T06:18:27;100339.50;;;5.85;100.00
24788;BME280;12883;52.662;5.196;2024-02-26T06:20:52;100319.72;;;5.66;100.00
24788;BME280;12883;52.662;5.196;2024-02-26T06:23:18;100353.94;;;5.89;100.00
24788;BME280;12883;52.662;5.196;2024-02-26T06:25:43;100358.72;;;5.85;100.00
24788;BME280;12883;52.662;5.196;2024-02-26T06:28:09;100308.50;;;5.58;100.00
24788;BME280;12883;52.662;5.196;2024-02-26T06:30:34;100355.56;;;5.90;100.00
24788;BME280;12883;52.662;5.196;2024-02-26T06:33:00;100356.56;;;5.89;100.00
24788;BME280;12883;52.662;5.196;2024-02-26T06:35:26;100362.28;;;5.92;100.00
24788;BME280;12883;52.662;5.196;2024-02-26T06:37:51;100374.97;;;5.89;100.00
24788;BME280;12883;52.662;5.196;2024-02-26T06:40:21;100367.81;;;5.83;100.00
24788;BME280;12883;52.662;5.196;2024-02-26T06:42:46;100385.97;;;5.92;100.00
24788;BME280;12883;52.662;5.196;2024-02-26T06:45:12;100385.34;;;5.90;100.00
24788;BME280;12883;52.662;5.196;2024-02-26T06:47:37;100395.25;;;5.88;100.00
24788;BME280;12883;52.662;5.196;2024-02-26T06:50:03;100389.44;;;5.93;100.00
24788;BME280;12883;52.662;5.196;2024-02-26T06:52:28;100393.41;;;5.89;100.00
24788;BME280;12883;52.662;5.196;2024-02-26T06:54:53;100356.22;;;5.69;100.00
24788;BME280;12883;52.662;5.196;2024-02-26T06:57:21;100380.25;;;5.89;100.00
24788;BME280;12883;52.662;5.196;2024-02-26T06:59:46;100337.91;;;5.61;100.00
24788;BME280;12883;52.662;5.196;2024-02-26T07:02:15;100394.97;;;5.83;100.00
24788;BME280;12883;52.662;5.196;2024-02-26T07:04:41;100405.78;;;5.88;100.00
24788;BME280;12883;52.662;5.196;2024-02-26T07:07:07;100358.28;;;5.59;100.00
24788;BME280;12883;52.662;5.196;2024-02-26T07:09:32;100428.09;;;5.92;100.00
24788;BME280;12883;52.662;5.196;2024-02-26T07:11:58;100420.03;;;5.94;100.00
24788;BME280;12883;52.662;5.196;2024-02-26T07:14:23;100411.38;;;5.85;100.00
24788;BME280;12883;52.662;5.196;2024-02-26T07:16:49;100438.63;;;5.92;100.00
24788;BME280;12883;52.662;5.196;2024-02-26T07:19:15;100450.00;;;5.93;100.00
24788;BME280;12883;52.662;5.196;2024-02-26T07:21:40;100454.09;;;5.95;100.00
24788;BME280;12883;52.662;5.196;2024-02-26T07:24:06;100463.97;;;5.93;100.00
24788;BME280;12883;52.662;5.196;2024-02-26T07:26:31;100465.44;;;5.96;100.00
24788;BME280;12883;52.662;5.196;2024-02-26T07:28:57;100467.88;;;5.97;100.00
24788;BME280;12883;52.662;5.196;2024-02-26T07:31:22;100478.72;;;6.02;100.00
24788;BME280;12883;52.662;5.196;2024-02-26T07:33:48;100474.44;;;6.01;100.00
24788;BME280;12883;52.662;5.196;2024-02-26T07:36:13;100482.06;;;5.96;100.00
24788;BME280;12883;52.662;5.196;2024-02-26T07:38:38;100495.16;;;6.04;100.00
24788;BME280;12883;52.662;5.196;2024-02-26T07:41:04;100521.47;;;6.04;100.00
24788;BME280;12883;52.662;5.196;2024-02-26T07:43:30;100502.03;;;6.05;100.00
24788;BME280;12883;52.662;5.196;2024-02-26T07:45:55;100502.50;;;6.09;100.00
24788;BME280;12883;52.662;5.196;2024-02-26T07:48:21;100498.16;;;6.01;100.00
24788;BME280;12883;52.662;5.196;2024-02-26T07:50:46;100510.25;;;6.10;100.00
24788;BME280;12883;52.662;5.196;2024-02-26T07:53:11;100508.25;;;6.12;100.00
24788;BME280;12883;52.662;5.196;2024-02-26T07:55:37;100521.41;;;6.12;100.00
24788;BME280;12883;52.662;5.196;2024-02-26T07:58:02;100520.78;;;6.10;100.00
24788;BME280;12883;52.662;5.196;2024-02-26T08:00:28;100517.50;;;6.08;100.00
24788;BME280;12883;52.662;5.196;2024-02-26T08:02:53;100514.81;;;6.16;100.00
24788;BME280;12883;52.662;5.196;2024-02-26T08:05:19;100507.94;;;6.07;100.00
24788;BME280;12883;52.662;5.196;2024-02-26T08:07:44;100523.34;;;6.18;100.00
24788;BME280;12883;52.662;5.196;2024-02-26T08:10:10;100534.56;;;6.12;100.00
24788;BME280;12883;52.662;5.196;2024-02-26T08:12:36;100517.13;;;6.11;100.00
24788;BME280;12883;52.662;5.196;2024-02-26T08:15:01;100527.22;;;6.08;100.00
24788;BME280;12883;52.662;5.196;2024-02-26T08:17:27;100507.44;;;6.12;100.00
24788;BME280;12883;52.662;5.196;2024-02-26T08:19:53;100530.22;;;6.19;100.00
24788;BME280;12883;52.662;5.196;2024-02-26T08:22:18;100497.19;;;5.94;100.00
24788;BME280;12883;52.662;5.196;2024-02-26T08:24:44;100529.69;;;6.09;100.00
24788;BME280;12883;52.662;5.196;2024-02-26T08:27:09;100544.25;;;6.20;100.00
24788;BME280;12883;52.662;5.196;2024-02-26T08:29:35;100543.56;;;6.18;100.00
24788;BME280;12883;52.662;5.196;2024-02-26T08:32:00;100545.94;;;6.13;100.00
24788;BME280;12883;52.662;5.196;2024-02-26T08:34:26;100541.47;;;6.13;100.00
24788;BME280;12883;52.662;5.196;2024-02-26T08:36:51;100527.13;;;6.01;100.00
24788;BME280;12883;52.662;5.196;2024-02-26T08:39:17;100563.47;;;6.20;100.00
24788;BME280;12883;52.662;5.196;2024-02-26T08:41:43;100554.47;;;6.15;100.00
24788;BME280;12883;52.662;5.196;2024-02-26T08:44:09;100564.25;;;6.29;100.00
24788;BME280;12883;52.662;5.196;2024-02-26T08:46:35;100575.94;;;6.26;100.00
24788;BME280;12883;52.662;5.196;2024-02-26T08:49:00;100578.88;;;6.31;100.00
24788;BME280;12883;52.662;5.196;2024-02-26T08:51:25;100595.69;;;6.30;100.00
24788;BME280;12883;52.662;5.196;2024-02-26T08:53:51;100610.81;;;6.28;100.00
24788;BME280;12883;52.662;5.196;2024-02-26T08:56:16;100604.53;;;6.37;100.00
24788;BME280;12883;52.662;5.196;2024-02-26T08:58:45;100612.13;;;6.32;100.00
24788;BME280;12883;52.662;5.196;2024-02-26T09:01:13;100612.97;;;6.33;100.00
24788;BME280;12883;52.662;5.196;2024-02-26T09:03:39;100630.88;;;6.37;100.00
24788;BME280;12883;52.662;5.196;2024-02-26T09:06:05;100625.59;;;6.37;100.00
24788;BME280;12883;52.662;5.196;2024-02-26T09:08:32;100627.53;;;6.43;100.00
24788;BME280;12883;52.662;5.196;2024-02-26T09:10:57;100629.97;;;6.45;100.00
24788;BME280;12883;52.662;5.196;2024-02-26T09:13:22;100647.25;;;6.47;100.00
24788;BME280;12883;52.662;5.196;2024-02-26T09:15:48;100644.59;;;6.47;100.00
24788;BME280;12883;52.662;5.196;2024-02-26T09:18:14;100650.72;;;6.48;100.00
24788;BME280;12883;52.662;5.196;2024-02-26T09:20:40;100637.34;;;6.49;100.00
24788;BME280;12883;52.662;5.196;2024-02-26T09:23:06;100647.63;;;6.59;100.00
24788;BME280;12883;52.662;5.196;2024-02-26T09:25:31;100645.19;;;6.57;100.00
24788;BME280;12883;52.662;5.196;2024-02-26T09:27:58;100620.25;;;6.45;100.00
24788;BME280;12883;52.662;5.196;2024-02-26T09:30:24;100655.00;;;6.63;100.00
24788;BME280;12883;52.662;5.196;2024-02-26T09:32:49;100677.41;;;6.67;100.00
24788;BME280;12883;52.662;5.196;2024-02-26T09:35:14;100673.44;;;6.71;100.00
24788;BME280;12883;52.662;5.196;2024-02-26T09:37:40;100674.59;;;6.69;100.00
24788;BME280;12883;52.662;5.196;2024-02-26T09:40:06;100687.56;;;6.70;100.00
24788;BME280;12883;52.662;5.196;2024-02-26T09:42:32;100696.16;;;6.72;100.00
24788;BME280;12883;52.662;5.196;2024-02-26T09:45:00;100701.22;;;6.74;100.00
24788;BME280;12883;52.662;5.196;2024-02-26T09:47:28;100705.06;;;6.71;100.00
24788;BME280;12883;52.662;5.196;2024-02-26T09:49:56;100707.63;;;6.79;100.00
24788;BME280;12883;52.662;5.196;2024-02-26T09:52:23;100714.16;;;6.83;100.00
24788;BME280;12883;52.662;5.196;2024-02-26T09:54:49;100710.56;;;6.84;100.00
24788;BME280;12883;52.662;5.196;2024-02-26T09:57:15;100721.91;;;6.85;100.00
24788;BME280;12883;52.662;5.196;2024-02-26T09:59:43;100716.75;;;6.91;100.00
24788;BME280;12883;52.662;5.196;2024-02-26T10:02:13;100665.69;;;6.47;100.00
24788;BME280;12883;52.662;5.196;2024-02-26T10:04:39;100735.50;;;6.96;100.00
24788;BME280;12883;52.662;5.196;2024-02-26T10:07:10;100746.97;;;7.03;100.00
24788;BME280;12883;52.662;5.196;2024-02-26T10:09:35;100727.50;;;7.04;100.00
24788;BME280;12883;52.662;5.196;2024-02-26T10:12:01;100697.63;;;6.75;100.00
24788;BME280;12883;52.662;5.196;2024-02-26T10:14:27;100767.84;;;7.13;100.00
24788;BME280;12883;52.662;5.196;2024-02-26T10:16:52;100760.75;;;7.13;100.00
24788;BME280;12883;52.662;5.196;2024-02-26T10:19:28;100762.38;;;7.14;100.00
24788;BME280;12883;52.662;5.196;2024-02-26T10:21:58;100746.63;;;7.06;100.00
24788;BME280;12883;52.662;5.196;2024-02-26T10:24:24;100765.47;;;7.18;100.00
24788;BME280;12883;52.662;5.196;2024-02-26T10:26:51;100766.75;;;7.22;100.00
24788;BME280;12883;52.662;5.196;2024-02-26T10:29:18;100781.31;;;7.18;100.00
24788;BME280;12883;52.662;5.196;2024-02-26T10:31:44;100782.13;;;7.18;100.00
24788;BME280;12883;52.662;5.196;2024-02-26T10:34:10;100792.34;;;7.21;100.00
24788;BME280;12883;52.662;5.196;2024-02-26T10:36:35;100776.19;;;7.02;100.00
24788;BME280;12883;52.662;5.196;2024-02-26T10:39:03;100797.44;;;7.23;100.00
24788;BME280;12883;52.662;5.196;2024-02-26T10:41:30;100800.53;;;7.26;100.00
24788;BME280;12883;52.662;5.196;2024-02-26T10:43:55;100811.75;;;7.28;100.00
24788;BME280;12883;52.662;5.196;2024-02-26T10:46:21;100810.72;;;7.29;100.00
24788;BME280;12883;52.662;5.196;2024-02-26T10:48:50;100782.19;;;7.10;100.00
24788;BME280;12883;52.662;5.196;2024-02-26T10:51:22;100813.84;;;7.33;100.00
24788;BME280;12883;52.662;5.196;2024-02-26T10:53:51;100818.13;;;7.34;100.00
24788;BME280;12883;52.662;5.196;2024-02-26T10:56:26;100811.44;;;7.23;100.00
24788;BME280;12883;52.662;5.196;2024-02-26T10:58:55;100822.22;;;7.36;100.00
24788;BME280;12883;52.662;5.196;2024-02-26T11:01:21;100824.09;;;7.28;100.00
24788;BME280;12883;52.662;5.196;2024-02-26T11:03:52;100827.41;;;7.30;100.00
24788;BME280;12883;52.662;5.196;2024-02-26T11:06:21;100826.78;;;7.42;100.00
24788;BME280;12883;52.662;5.196;2024-02-26T11:08:50;100829.59;;;7.41;100.00
24788;BME280;12883;52.662;5.196;2024-02-26T11:11:17;100845.28;;;7.42;100.00
24788;BME280;12883;52.662;5.196;2024-02-26T11:13:46;100840.63;;;7.44;100.00
24788;BME280;12883;52.662;5.196;2024-02-26T11:16:18;100845.56;;;7.47;100.00
24788;BME280;12883;52.662;5.196;2024-02-26T11:18:46;100827.59;;;7.43;100.00
24788;BME280;12883;52.662;5.196;2024-02-26T11:21:16;100836.97;;;7.45;100.00
24788;BME280;12883;52.662;5.196;2024-02-26T11:23:44;100861.03;;;7.50;100.00
24788;BME280;12883;52.662;5.196;2024-02-26T11:26:11;100854.13;;;7.49;100.00
24788;BME280;12883;52.662;5.196;2024-02-26T11:28:38;100850.00;;;7.47;100.00
24788;BME280;12883;52.662;5.196;2024-02-26T11:31:04;100840.63;;;7.44;100.00
24788;BME280;12883;52.662;5.196;2024-02-26T11:33:30;100846.50;;;7.54;100.00
24788;BME280;12883;52.662;5.196;2024-02-26T11:35:56;100841.56;;;7.29;100.00
24788;BME280;12883;52.662;5.196;2024-02-26T11:38:24;100868.88;;;7.58;100.00
24788;BME280;12883;52.662;5.196;2024-02-26T11:40:50;100862.88;;;7.64;100.00
24788;BME280;12883;52.662;5.196;2024-02-26T11:43:16;100869.72;;;7.59;100.00
24788;BME280;12883;52.662;5.196;2024-02-26T11:48:16;100862.06;;;7.64;100.00
24788;BME280;12883;52.662;5.196;2024-02-26T11:50:52;100870.81;;;7.64;100.00
24788;BME280;12883;52.662;5.196;2024-02-26T11:56:25;100864.81;;;7.70;100.00
24788;BME280;12883;52.662;5.196;2024-02-26T11:59:02;100871.28;;;7.68;100.00
24788;BME280;12883;52.662;5.196;2024-02-26T12:01:45;100879.09;;;7.61;100.00
24788;BME280;12883;52.662;5.196;2024-02-26T12:04:19;100889.13;;;7.66;100.00
24788;BME280;12883;52.662;5.196;2024-02-26T12:06:56;100890.94;;;7.65;100.00
24788;BME280;12883;52.662;5.196;2024-02-26T12:12:04;100896.28;;;7.57;100.00
24788;BME280;12883;52.662;5.196;2024-02-26T12:14:33;100888.19;;;7.59;100.00
24788;BME280;12883;52.662;5.196;2024-02-26T12:16:58;100898.22;;;7.63;100.00
24788;BME280;12883;52.662;5.196;2024-02-26T12:19:24;100919.91;;;7.73;100.00
24788;BME280;12883;52.662;5.196;2024-02-26T12:21:52;100895.50;;;7.71;100.00
24788;BME280;12883;52.662;5.196;2024-02-26T12:24:21;100897.50;;;7.69;100.00
24788;BME280;12883;52.662;5.196;2024-02-26T12:26:46;100900.16;;;7.69;100.00
24788;BME280;12883;52.662;5.196;2024-02-26T12:29:12;100905.06;;;7.72;100.00
24788;BME280;12883;52.662;5.196;2024-02-26T12:31:39;100911.34;;;7.71;100.00
24788;BME280;12883;52.662;5.196;2024-02-26T12:34:05;100894.81;;;7.55;100.00
24788;BME280;12883;52.662;5.196;2024-02-26T12:36:31;100928.03;;;7.72;100.00
24788;BME280;12883;52.662;5.196;2024-02-26T12:38:57;100922.06;;;7.70;100.00
24788;BME280;12883;52.662;5.196;2024-02-26T12:41:23;100928.50;;;7.75;100.00
24788;BME280;12883;52.662;5.196;2024-02-26T12:43:48;100893.63;;;7.57;100.00
24788;BME280;12883;52.662;5.196;2024-02-26T12:46:15;100912.66;;;7.75;100.00
24788;BME280;12883;52.662;5.196;2024-02-26T12:48:44;100924.84;;;7.76;100.00
24788;BME280;12883;52.662;5.196;2024-02-26T12:51:14;100938.94;;;7.69;100.00
24788;BME280;12883;52.662;5.196;2024-02-26T12:53:40;100899.56;;;7.59;100.00